Time;durP1;ratioP1;P1;durP2;ratioP2;P2;SDS_P1;SDS_P2;PMS_P1;PMS_P2;Temp;Humidity;BMP_temperature;BMP_pressure;BME280_temperature;BME280_humidity;BME280_pressure;Samples;Min_cycle;Max_cycle;Signal;HPM_P1;HPM_P2
2022/01/04 00:01:34;;;;;;;26.70;15.25;;;;;;;7.01;98.19;100175.50;5090178;28;20032;-72
2022/01/04 00:04:00;;;;;;;24.15;14.32;;;;;;;6.93;97.77;100165.38;5090357;28;20442;-74
2022/01/04 00:06:26;;;;;;;24.35;15.82;;;;;;;6.93;97.92;100165.38;5090343;28;20032;-72
2022/01/04 00:08:55;;;;;;;24.58;15.52;;;;;;;6.95;97.84;100178.59;5090088;28;20020;-72
2022/01/04 00:11:31;;;;;;;28.65;16.40;;;;;;;6.91;98.91;100169.97;5089838;28;20495;-72
2022/01/04 00:14:00;;;;;;;26.35;16.40;;;;;;;6.93;99.08;100167.19;5071854;28;20030;-72
2022/01/04 00:16:25;;;;;;;27.02;17.25;;;;;;;6.96;98.94;100178.50;5090364;28;20434;-72
2022/01/04 00:18:51;;;;;;;25.65;15.35;;;;;;;6.92;99.79;100161.03;5089894;28;20022;-73
2022/01/04 00:21:16;;;;;;;22.80;15.02;;;;;;;6.83;99.46;100137.72;5089075;28;20103;-69
2022/01/04 00:23:43;;;;;;;25.73;16.20;;;;;;;6.96;100.00;100154.50;5088572;28;20036;-67
2022/01/04 00:26:08;;;;;;;27.45;17.27;;;;;;;6.92;100.00;100154.84;5070195;28;20093;-69
2022/01/04 00:28:34;;;;;;;25.77;15.70;;;;;;;6.93;99.88;100146.72;5088598;28;20028;-68
2022/01/04 00:30:59;;;;;;;27.27;16.65;;;;;;;6.88;99.75;100145.38;5088880;28;20020;-69
2022/01/04 00:33:25;;;;;;;22.65;15.68;;;;;;;7.00;100.00;100157.81;5088656;28;20024;-68
2022/01/04 00:35:50;;;;;;;25.23;15.73;;;;;;;7.02;100.00;100160.34;5088808;28;20548;-68
2022/01/04 00:38:16;;;;;;;24.95;15.88;;;;;;;7.06;99.73;100154.63;5088561;28;20074;-69
2022/01/04 00:40:42;;;;;;;23.70;15.13;;;;;;;6.99;100.00;100146.28;5070326;28;20081;-69
2022/01/04 00:43:07;;;;;;;23.20;15.20;;;;;;;7.00;100.00;100147.13;5087962;28;20376;-68
2022/01/04 00:45:37;;;;;;;27.23;16.02;;;;;;;7.00;100.00;100147.97;5088377;28;20035;-68
2022/01/04 00:50:34;;;;;;;23.67;14.57;;;;;;;7.02;100.00;100150.50;5088551;28;20153;-68
2022/01/04 00:53:00;;;;;;;24.27;15.35;;;;;;;7.07;100.00;100147.50;5070543;28;20031;-68
2022/01/04 00:55:27;;;;;;;25.70;16.40;;;;;;;7.11;100.00;100157.81;5088203;28;20040;-68
2022/01/04 00:57:53;;;;;;;25.73;16.65;;;;;;;7.11;100.00;100154.28;5088346;28;20035;-68
2022/01/04 01:00:20;;;;;;;24.75;15.38;;;;;;;7.12;100.00;100150.69;5088237;28;20472;-69
2022/01/04 01:02:46;;;;;;;25.48;16.30;;;;;;;7.14;100.00;100148.72;5088225;28;20032;-69
2022/01/04 01:05:13;;;;;;;26.27;16.10;;;;;;;7.15;100.00;100134.44;5069893;28;20036;-70
2022/01/04 01:07:38;;;;;;;23.45;15.55;;;;;;;7.19;100.00;100135.91;5070087;28;20031;-67
2022/01/04 01:10:31;;;;;;;24.42;15.75;;;;;;;7.22;100.00;100130.34;5089544;28;20024;-69
2022/01/04 01:12:54;;;;;;;23.60;14.45;;;;;;;7.22;100.00;100141.84;5091361;28;20105;-68
2022/01/04 01:15:20;;;;;;;24.40;16.63;;;;;;;7.13;100.00;100115.91;5092023;28;20031;-69
2022/01/04 01:17:46;;;;;;;25.17;15.43;;;;;;;7.25;100.00;100136.28;5073669;28;20048;-68
2022/01/04 01:20:13;;;;;;;29.27;16.70;;;;;;;7.16;100.00;100112.13;5091686;28;20116;-68
2022/01/04 01:22:40;;;;;;;24.92;15.63;;;;;;;7.26;100.00;100126.47;5091614;28;20553;-69
2022/01/04 01:25:06;;;;;;;27.20;15.55;;;;;;;7.25;100.00;100117.59;5091792;28;20024;-68
2022/01/04 01:27:31;;;;;;;20.92;15.15;;;;;;;7.24;100.00;100107.91;5092076;28;20173;-68
2022/01/04 01:29:57;;;;;;;26.23;15.45;;;;;;;7.30;100.00;100122.56;5073505;28;20786;-69
2022/01/04 01:32:22;;;;;;;24.13;15.60;;;;;;;7.30;100.00;100107.44;5091675;28;20077;-69
2022/01/04 01:34:48;;;;;;;23.38;15.00;;;;;;;7.36;100.00;100106.09;5091681;28;20471;-67
2022/01/04 01:37:13;;;;;;;25.30;15.45;;;;;;;7.38;100.00;100104.19;5091328;28;20024;-68
2022/01/04 01:39:39;;;;;;;23.00;14.68;;;;;;;7.43;100.00;100102.84;5073400;28;20188;-73
2022/01/04 01:42:05;;;;;;;24.50;14.48;;;;;;;7.43;100.00;100099.31;5082547;28;20029;-73
2022/01/04 01:44:31;;;;;;;22.25;14.90;;;;;;;7.47;100.00;100095.44;5071684;28;20387;-73
2022/01/04 01:46:57;;;;;;;22.70;14.70;;;;;;;7.49;100.00;100091.69;5053336;28;20059;-73
2022/01/04 01:49:23;;;;;;;22.92;15.73;;;;;;;7.48;100.00;100075.81;5071280;28;20033;-73
2022/01/04 01:51:49;;;;;;;25.98;14.70;;;;;;;7.48;100.00;100070.47;5056953;28;20024;-73
2022/01/04 01:54:15;;;;;;;20.90;13.73;;;;;;;7.59;100.00;100067.78;5091552;28;20051;-73
2022/01/04 01:56:40;;;;;;;23.05;13.55;;;;;;;7.53;100.00;100049.59;5073301;28;20046;-73
2022/01/04 01:59:06;;;;;;;21.38;13.90;;;;;;;7.65;100.00;100061.97;5081086;28;20483;-72
2022/01/04 02:01:32;;;;;;;19.35;12.75;;;;;;;7.68;100.00;100062.56;5089742;28;20115;-72
2022/01/04 02:03:58;;;;;;;26.17;13.27;;;;;;;7.72;100.00;100060.50;5085502;28;20147;-73
2022/01/04 02:06:24;;;;;;;18.42;12.52;;;;;;;7.69;100.00;100045.59;5080738;28;20036;-74
2022/01/04 02:08:52;;;;;;;19.33;12.93;;;;;;;7.77;100.00;100052.97;5080453;28;20032;-72
2022/01/04 02:11:19;;;;;;;20.25;13.20;;;;;;;7.79;99.88;100049.22;5075013;28;20036;-72
2022/01/04 02:13:45;;;;;;;19.70;12.35;;;;;;;7.73;99.55;100041.69;5053847;28;20118;-72
2022/01/04 02:16:11;;;;;;;19.90;12.73;;;;;;;7.88;99.45;100064.50;5085578;28;20036;-72
2022/01/04 02:18:39;;;;;;;20.02;12.20;;;;;;;7.91;99.16;100050.03;5091305;28;20032;-73
2022/01/04 02:21:04;;;;;;;18.42;12.25;;;;;;;7.92;98.83;100046.38;5075014;28;20029;-73
2022/01/04 02:23:30;;;;;;;18.67;11.80;;;;;;;7.93;98.87;100040.09;5084723;28;20085;-73
2022/01/04 02:25:56;;;;;;;19.40;13.15;;;;;;;7.96;98.64;100034.50;5090427;28;20027;-73
2022/01/04 02:28:22;;;;;;;18.90;12.13;;;;;;;7.96;98.19;100023.81;5091128;28;20032;-73
2022/01/04 02:30:48;;;;;;;20.33;12.18;;;;;;;7.95;97.90;100022.97;5091138;28;20065;-72
2022/01/04 02:33:15;;;;;;;18.38;12.13;;;;;;;7.96;97.08;100013.13;5090950;28;20024;-72
2022/01/04 02:35:40;;;;;;;19.38;12.52;;;;;;;7.98;97.17;100021.84;5072342;28;20063;-73
2022/01/04 02:38:06;;;;;;;16.17;11.32;;;;;;;7.96;97.36;100011.28;5090894;28;20064;-73
2022/01/04 02:40:32;;;;;;;18.85;12.50;;;;;;;8.02;96.97;100021.47;5072951;28;20024;-73
2022/01/04 02:42:59;;;;;;;17.33;12.50;;;;;;;7.98;96.60;100000.50;5074485;28;20103;-72
2022/01/04 02:45:24;;;;;;;19.40;11.88;;;;;;;7.96;96.66;99989.09;5070356;28;20059;-73
2022/01/04 02:47:50;;;;;;;16.38;11.60;;;;;;;8.03;96.18;99990.28;5070288;28;20063;-72
2022/01/04 02:50:16;;;;;;;17.65;12.43;;;;;;;7.92;96.06;99976.97;5070062;28;20540;-68
2022/01/04 02:52:42;;;;;;;16.90;11.10;;;;;;;7.92;95.94;99984.97;5070478;28;20174;-69
2022/01/04 02:55:10;;;;;;;18.50;12.05;;;;;;;7.85;95.94;99973.97;5070794;28;20033;-67
2022/01/04 02:57:36;;;;;;;19.02;12.30;;;;;;;7.88;96.04;99981.72;5069436;28;20044;-69
2022/01/04 03:00:05;;;;;;;19.60;12.25;;;;;;;7.80;95.96;99976.16;5070814;28;20073;-69
2022/01/04 03:02:30;;;;;;;19.90;13.02;;;;;;;7.80;96.34;99981.47;5070041;28;20032;-69
2022/01/04 03:04:56;;;;;;;20.05;12.60;;;;;;;7.82;96.37;99984.03;5070309;28;20051;-69
2022/01/04 03:07:24;;;;;;;17.55;12.77;;;;;;;7.76;96.51;99968.50;5070150;28;20101;-69
2022/01/04 03:09:49;;;;;;;20.38;12.98;;;;;;;7.80;96.64;99967.31;5070247;28;20029;-69
2022/01/04 03:12:15;;;;;;;19.75;12.43;;;;;;;7.73;96.09;99963.44;5068818;28;20032;-68
2022/01/04 03:14:40;;;;;;;18.92;11.90;;;;;;;7.73;95.82;99976.78;5070258;28;20090;-67
2022/01/04 03:17:06;;;;;;;17.77;12.07;;;;;;;7.70;96.15;99967.19;5070466;28;20487;-69
2022/01/04 03:19:32;;;;;;;21.60;12.32;;;;;;;7.60;96.26;99954.72;5069814;28;20365;-68
2022/01/04 03:21:57;;;;;;;18.08;13.10;;;;;;;7.56;96.07;99948.81;5068682;28;20040;-69
2022/01/04 03:24:23;;;;;;;21.17;13.75;;;;;;;7.59;96.84;99964.56;5069822;28;20017;-68
2022/01/04 03:26:48;;;;;;;20.45;13.57;;;;;;;7.53;96.74;99946.38;5069906;28;20028;-69
2022/01/04 03:29:15;;;;;;;22.60;13.75;;;;;;;7.53;96.95;99950.84;5069824;28;20044;-69
2022/01/04 03:31:42;;;;;;;22.15;14.02;;;;;;;7.57;96.30;99954.97;5069973;28;20032;-67
2022/01/04 03:34:08;;;;;;;20.05;12.60;;;;;;;7.52;96.72;99947.38;5069846;28;20181;-68
2022/01/04 03:36:34;;;;;;;22.83;13.32;;;;;;;7.44;96.10;99932.91;5070118;28;20131;-68
2022/01/04 03:39:04;;;;;;;20.90;13.10;;;;;;;7.48;96.56;99950.41;5069747;28;20024;-68
2022/01/04 03:41:31;;;;;;;21.75;13.88;;;;;;;7.41;96.48;99943.88;5071428;28;20120;-69
2022/01/04 03:43:57;;;;;;;21.52;13.80;;;;;;;7.33;96.35;99927.63;5071509;28;20024;-69
2022/01/04 03:46:23;;;;;;;20.55;13.55;;;;;;;7.33;96.39;99928.47;5070974;28;20044;-68
2022/01/04 03:48:49;;;;;;;21.23;13.00;;;;;;;7.28;96.85;99924.50;5071411;28;20389;-69
2022/01/04 03:51:14;;;;;;;23.33;13.82;;;;;;;7.30;96.64;99930.53;5089704;28;20035;-69
2022/01/04 03:53:40;;;;;;;22.58;14.27;;;;;;;7.25;96.64;99925.56;5089681;28;20047;-68
2022/01/04 03:56:05;;;;;;;19.52;13.65;;;;;;;7.22;96.27;99914.31;5090089;28;20044;-67
2022/01/04 03:58:31;;;;;;;20.73;12.98;;;;;;;7.24;96.87;99923.88;5089631;28;20030;-67
2022/01/04 04:00:57;;;;;;;22.73;14.73;;;;;;;7.20;96.67;99919.78;5071305;28;20062;-68
2022/01/04 04:03:23;;;;;;;21.85;14.18;;;;;;;7.15;96.79;99913.13;5089495;28;20062;-68
2022/01/04 04:05:49;;;;;;;22.42;14.57;;;;;;;7.10;97.60;99907.28;5071382;28;20031;-69
2022/01/04 04:08:15;;;;;;;21.10;14.63;;;;;;;7.07;97.70;99909.22;5089679;28;20065;-68
2022/01/04 04:10:41;;;;;;;18.55;13.25;;;;;;;7.02;97.85;99891.91;5089958;28;20505;-70
2022/01/04 04:13:06;;;;;;;24.52;14.52;;;;;;;7.02;98.08;99904.41;5090059;28;20032;-68
2022/01/04 04:15:32;;;;;;;21.13;13.35;;;;;;;7.09;97.96;99910.94;5089844;28;20039;-68
2022/01/04 04:17:57;;;;;;;23.33;14.55;;;;;;;7.09;98.19;99902.94;5089616;28;20020;-68
2022/01/04 04:20:25;;;;;;;25.05;14.73;;;;;;;7.07;98.77;99896.88;5071088;28;20034;-68
2022/01/04 04:22:53;;;;;;;18.15;12.77;;;;;;;7.07;98.63;99899.53;5070940;28;20028;-68
2022/01/04 04:25:19;;;;;;;21.98;13.35;;;;;;;7.04;99.56;99890.78;5089158;28;20495;-69
2022/01/04 04:27:44;;;;;;;22.50;14.68;;;;;;;7.06;99.61;99893.34;5089437;28;20016;-68
2022/01/04 04:30:10;;;;;;;18.08;12.40;;;;;;;7.07;99.83;99894.19;5071325;28;20059;-69
2022/01/04 04:32:36;;;;;;;24.08;14.40;;;;;;;7.01;100.00;99882.22;5089349;28;20077;-67
2022/01/04 04:35:03;;;;;;;19.52;13.48;;;;;;;7.09;100.00;99886.94;5089154;28;20036;-68
2022/01/04 04:37:30;;;;;;;19.52;12.80;;;;;;;7.10;99.71;99880.63;5070973;28;20085;-68
2022/01/04 04:39:56;;;;;;;21.67;13.63;;;;;;;7.12;100.00;99873.38;5070884;28;20025;-69
2022/01/04 04:42:22;;;;;;;21.38;13.07;;;;;;;7.09;99.88;99868.28;5077231;28;20040;-68
2022/01/04 04:44:48;;;;;;;20.80;13.02;;;;;;;7.08;100.00;99867.41;5051256;28;20032;-68
2022/01/04 04:47:13;;;;;;;20.80;13.02;;;;;;;7.09;100.00;99869.09;5072214;28;20420;-69
2022/01/04 04:49:38;;;;;;;19.27;12.48;;;;;;;7.07;100.00;99871.88;5072701;28;20460;-67
2022/01/04 04:52:05;;;;;;;17.33;11.65;;;;;;;7.08;100.00;99870.09;5072152;28;20112;-68
2022/01/04 04:54:30;;;;;;;18.00;12.52;;;;;;;7.08;100.00;99859.41;5054224;28;20633;-69
2022/01/04 04:56:56;;;;;;;16.98;11.00;;;;;;;7.14;100.00;99863.41;5072355;28;20107;-67
2022/01/04 04:59:21;;;;;;;17.17;11.27;;;;;;;7.13;100.00;99859.91;5071887;28;20033;-68
2022/01/04 05:01:47;;;;;;;17.90;12.13;;;;;;;7.18;100.00;99859.50;5054091;28;20029;-69
2022/01/04 05:04:12;;;;;;;17.77;10.77;;;;;;;7.11;100.00;99844.97;5053982;28;20022;-68
2022/01/04 05:06:38;;;;;;;17.80;10.90;;;;;;;7.14;100.00;99858.06;5054185;28;20043;-69
2022/01/04 05:09:03;;;;;;;16.00;11.30;;;;;;;7.14;100.00;99855.41;5072119;28;20154;-69
2022/01/04 05:11:29;;;;;;;15.40;10.30;;;;;;;7.12;100.00;99857.38;5072233;28;20056;-68
2022/01/04 05:13:55;;;;;;;15.95;10.63;;;;;;;7.17;100.00;99863.16;5071947;28;20099;-69
2022/01/04 05:16:21;;;;;;;14.73;10.45;;;;;;;7.09;100.00;99837.09;5074702;28;20142;-69
2022/01/04 05:18:46;;;;;;;16.75;10.85;;;;;;;7.17;100.00;99847.16;5072085;28;20032;-69
2022/01/04 05:21:12;;;;;;;14.98;10.43;;;;;;;7.13;100.00;99827.91;5072597;28;20503;-69
2022/01/04 05:23:37;;;;;;;16.55;10.52;;;;;;;7.13;100.00;99835.91;5073469;28;20078;-69
2022/01/04 05:26:03;;;;;;;16.52;10.57;;;;;;;7.11;100.00;99828.97;5073126;28;20081;-68
2022/01/04 05:28:28;;;;;;;15.88;11.07;;;;;;;7.11;100.00;99834.31;5072824;28;20111;-69
2022/01/04 05:30:54;;;;;;;17.10;10.48;;;;;;;7.10;100.00;99836.16;5072703;28;20063;-68
2022/01/04 05:33:24;;;;;;;17.88;11.40;;;;;;;7.00;100.00;99816.56;5071913;28;20023;-69
2022/01/04 05:35:49;;;;;;;16.27;10.52;;;;;;;7.03;100.00;99826.94;5086790;28;20526;-69
2022/01/04 05:38:17;;;;;;;18.52;10.73;;;;;;;7.03;100.00;99810.13;5054581;28;20033;-69
2022/01/04 05:40:44;;;;;;;16.90;10.45;;;;;;;7.00;100.00;99811.22;5069672;28;20079;-72
2022/01/04 05:43:10;;;;;;;15.27;10.02;;;;;;;6.99;100.00;99812.16;5071771;28;20109;-71
2022/01/04 05:45:38;;;;;;;14.95;9.88;;;;;;;7.06;100.00;99815.19;5086388;28;20064;-73
2022/01/04 05:48:07;;;;;;;15.18;9.93;;;;;;;7.03;100.00;99804.78;5074732;28;20024;-71
2022/01/04 05:50:34;;;;;;;14.68;9.07;;;;;;;7.08;100.00;99806.09;5092933;28;20027;-72
2022/01/04 05:53:00;;;;;;;15.50;9.30;;;;;;;7.06;100.00;99804.53;5093042;28;20046;-73
2022/01/04 05:55:25;;;;;;;17.58;10.20;;;;;;;7.04;100.00;99797.47;5085084;28;20114;-73
2022/01/04 05:57:51;;;;;;;14.57;9.45;;;;;;;7.06;100.00;99793.88;5084439;28;20089;-72
2022/01/04 06:00:19;;;;;;;14.32;9.82;;;;;;;7.10;100.00;99797.97;5085887;28;20043;-71
2022/01/04 06:02:44;;;;;;;18.33;10.75;;;;;;;7.06;100.00;99794.69;5081050;28;20024;-73
2022/01/04 06:05:10;;;;;;;12.73;9.27;;;;;;;7.04;100.00;99783.34;5062999;28;20540;-72
2022/01/04 06:07:36;;;;;;;12.77;9.48;;;;;;;7.07;100.00;99774.22;5082332;28;20123;-73
2022/01/04 06:10:03;;;;;;;13.15;8.93;;;;;;;7.09;100.00;99783.78;5078135;28;20067;-72
2022/01/04 06:15:00;;;;;;;16.73;10.65;;;;;;;7.10;100.00;99768.66;5075391;28;20024;-72
2022/01/04 06:17:34;;;;;;;15.20;10.30;;;;;;;7.11;100.00;99767.66;5078355;28;20123;-73
2022/01/04 06:20:01;;;;;;;16.08;10.00;;;;;;;7.10;100.00;99766.84;5084215;28;20020;-73
2022/01/04 06:22:28;;;;;;;16.77;10.93;;;;;;;7.13;100.00;99769.25;5081541;28;20043;-72
2022/01/04 06:24:54;;;;;;;17.45;11.68;;;;;;;7.13;100.00;99763.91;5078905;28;20103;-72
2022/01/04 06:27:20;;;;;;;17.52;10.85;;;;;;;7.15;100.00;99777.13;5088632;28;20043;-73
2022/01/04 06:29:46;;;;;;;16.00;10.85;;;;;;;7.03;100.00;99761.13;5080050;28;20028;-73
2022/01/04 06:32:12;;;;;;;15.70;11.30;;;;;;;7.13;100.00;99768.38;5079373;28;20027;-72
2022/01/04 06:34:39;;;;;;;17.73;11.55;;;;;;;7.12;100.00;99785.38;5076394;28;20025;-72
2022/01/04 06:37:06;;;;;;;15.95;10.32;;;;;;;7.06;100.00;99773.38;5074602;28;20029;-74
2022/01/04 06:39:31;;;;;;;16.52;11.32;;;;;;;7.12;100.00;99782.72;5076555;28;20251;-72
2022/01/04 06:41:57;;;;;;;18.55;12.23;;;;;;;7.10;100.00;99774.84;5077779;28;20020;-72
2022/01/04 06:44:23;;;;;;;19.60;12.30;;;;;;;7.07;100.00;99768.88;5079736;28;20024;-72
2022/01/04 06:46:48;;;;;;;18.35;12.18;;;;;;;7.07;100.00;99773.25;5077581;28;20511;-73
2022/01/04 06:49:18;;;;;;;20.05;12.30;;;;;;;7.09;100.00;99774.97;5069204;28;20024;-72
2022/01/04 06:51:45;;;;;;;18.13;12.05;;;;;;;7.10;100.00;99780.16;5080204;28;20031;-71
2022/01/04 06:54:12;;;;;;;20.60;12.45;;;;;;;7.18;100.00;99783.03;5080194;28;20020;-72
2022/01/04 06:56:38;;;;;;;18.38;12.40;;;;;;;7.12;100.00;99764.88;5081214;28;20027;-68
2022/01/04 06:59:05;;;;;;;21.33;12.80;;;;;;;7.15;99.96;99767.28;5080670;28;20028;-68
2022/01/04 07:01:31;;;;;;;19.25;12.85;;;;;;;7.06;99.62;99746.72;5079694;28;20464;-68
2022/01/04 07:03:56;;;;;;;20.58;13.07;;;;;;;7.12;100.00;99748.88;5081052;28;20035;-69
2022/01/04 07:06:22;;;;;;;23.08;16.25;;;;;;;7.15;99.99;99750.47;5075029;28;20029;-67
2022/01/04 07:08:47;;;;;;;22.73;14.48;;;;;;;7.05;100.00;99731.69;5082305;28;20024;-69
2022/01/04 07:11:14;;;;;;;21.00;14.30;;;;;;;7.16;100.00;99752.16;5071010;28;20547;-69
2022/01/04 07:13:40;;;;;;;20.33;14.50;;;;;;;7.19;100.00;99751.88;5080225;28;20028;-69
2022/01/04 07:16:05;;;;;;;21.92;14.70;;;;;;;7.15;100.00;99740.63;5078943;28;20579;-69
2022/01/04 07:18:31;;;;;;;21.23;14.82;;;;;;;7.26;99.25;99745.06;5081674;28;20090;-68
2022/01/04 07:20:56;;;;;;;22.52;15.25;;;;;;;7.19;98.99;99730.56;5081734;28;20032;-69
2022/01/04 07:23:22;;;;;;;24.42;15.77;;;;;;;7.28;98.63;99732.47;5079993;28;20082;-69
2022/01/04 07:25:48;;;;;;;22.45;15.18;;;;;;;7.25;98.69;99724.72;5077675;28;20035;-69
2022/01/04 07:28:14;;;;;;;20.95;14.65;;;;;;;7.27;97.70;99712.09;5079741;28;20587;-69
2022/01/04 07:30:39;;;;;;;22.70;15.15;;;;;;;7.25;98.17;99706.06;5079609;28;20111;-69
2022/01/04 07:33:04;;;;;;;25.92;15.52;;;;;;;7.35;98.03;99712.31;5078246;28;20025;-69
2022/01/04 07:35:30;;;;;;;22.38;15.57;;;;;;;7.42;97.59;99718.81;5060942;28;20039;-69
2022/01/04 07:37:56;;;;;;;28.02;16.73;;;;;;;7.45;97.10;99727.38;5075890;28;20107;-69
2022/01/04 07:40:21;;;;;;;20.92;15.52;;;;;;;7.41;96.74;99714.44;5083812;28;20032;-69
2022/01/04 07:42:48;;;;;;;23.30;15.77;;;;;;;7.47;97.50;99735.25;5076499;28;20028;-69
2022/01/04 07:45:14;;;;;;;25.35;15.60;;;;;;;7.49;97.17;99728.84;5078762;28;20587;-69
2022/01/04 07:47:42;;;;;;;26.00;16.27;;;;;;;7.49;97.14;99730.66;5073816;28;20060;-68
2022/01/04 07:50:10;;;;;;;24.10;15.55;;;;;;;7.58;96.91;99737.88;5074188;28;20036;-68
2022/01/04 07:52:35;;;;;;;23.65;15.93;;;;;;;7.61;96.45;99729.63;5077354;28;20055;-68
2022/01/04 07:55:02;;;;;;;26.92;16.40;;;;;;;7.66;96.12;99722.91;5083849;28;20078;-69
2022/01/04 07:57:28;;;;;;;28.35;16.17;;;;;;;7.68;95.81;99704.09;5074165;28;20353;-69
2022/01/04 07:59:53;;;;;;;26.83;16.38;;;;;;;7.69;95.76;99703.09;5082462;28;20086;-68
2022/01/04 08:02:19;;;;;;;24.63;16.00;;;;;;;7.72;95.69;99701.03;5081025;28;20031;-70
2022/01/04 08:04:44;;;;;;;23.48;15.82;;;;;;;7.77;95.08;99703.31;5074693;28;20448;-68
2022/01/04 08:07:10;;;;;;;24.92;16.23;;;;;;;7.80;94.99;99701.19;5083966;28;20397;-73
2022/01/04 08:09:35;;;;;;;30.48;17.60;;;;;;;7.78;93.97;99691.66;5074098;28;20026;-73
2022/01/04 08:12:01;;;;;;;24.38;16.27;;;;;;;7.90;93.11;99704.75;5079761;28;20039;-72
2022/01/04 08:14:26;;;;;;;29.80;17.30;;;;;;;7.93;92.54;99695.66;5084342;28;20031;-72
2022/01/04 08:16:53;;;;;;;31.45;17.75;;;;;;;7.87;93.32;99678.34;5065914;28;20073;-72
2022/01/04 08:19:18;;;;;;;27.23;16.55;;;;;;;8.05;93.16;99683.91;5076111;28;20063;-72
2022/01/04 08:21:44;;;;;;;25.70;16.50;;;;;;;8.07;92.57;99692.63;5074281;28;20055;-73
2022/01/04 08:24:09;;;;;;;28.60;16.73;;;;;;;8.03;92.74;99688.53;5086047;28;20032;-72
2022/01/04 08:26:36;;;;;;;24.55;15.68;;;;;;;8.13;92.67;99692.09;5083492;28;20391;-73
2022/01/04 08:29:02;;;;;;;21.77;14.45;;;;;;;8.15;91.77;99684.78;5081593;28;20020;-73
2022/01/04 08:31:27;;;;;;;24.73;14.38;;;;;;;8.16;91.87;99686.50;5074430;28;20031;-73
2022/01/04 08:33:53;;;;;;;20.38;13.48;;;;;;;8.33;90.66;99685.88;5076297;28;20017;-72
2022/01/04 08:36:20;;;;;;;21.10;13.27;;;;;;;8.30;90.88;99688.81;5076711;28;20111;-69
2022/01/04 08:38:45;;;;;;;19.45;13.30;;;;;;;8.34;90.57;99692.91;5082438;28;20025;-69
2022/01/04 08:41:11;;;;;;;18.98;12.25;;;;;;;8.38;90.99;99687.16;5085832;28;20028;-69
2022/01/04 08:43:36;;;;;;;18.10;12.07;;;;;;;8.41;90.72;99691.38;5076227;28;20036;-68
2022/01/04 08:46:02;;;;;;;20.38;13.20;;;;;;;8.33;91.16;99662.69;5070735;28;20033;-69
2022/01/04 08:48:27;;;;;;;16.70;12.02;;;;;;;8.49;91.26;99678.19;5057735;28;20040;-68
2022/01/04 08:50:53;;;;;;;18.13;11.93;;;;;;;8.48;91.10;99676.50;5075691;28;20158;-69
2022/01/04 08:53:18;;;;;;;18.17;12.02;;;;;;;8.53;90.93;99674.25;5076396;28;20522;-69
2022/01/04 08:55:47;;;;;;;18.10;11.48;;;;;;;8.53;91.12;99660.88;5073142;28;20024;-68
2022/01/04 08:58:15;;;;;;;17.40;11.40;;;;;;;8.56;90.59;99657.94;5081147;28;20067;-69
2022/01/04 09:00:43;;;;;;;15.52;10.77;;;;;;;8.77;89.46;99664.84;5078585;28;20048;-68
2022/01/04 09:03:08;;;;;;;16.27;11.15;;;;;;;8.76;89.25;99648.94;5078125;28;20123;-68
2022/01/04 09:05:34;;;;;;;14.80;10.25;;;;;;;8.85;89.79;99653.47;5076302;28;20108;-68
2022/01/04 09:08:00;;;;;;;17.48;11.10;;;;;;;8.84;89.53;99657.13;5075356;28;20016;-69
2022/01/04 09:10:27;;;;;;;15.73;10.60;;;;;;;8.97;89.23;99673.75;5075979;28;20499;-70
2022/01/04 09:13:04;;;;;;;15.27;10.63;;;;;;;9.06;88.29;99667.53;5075875;28;20051;-69
2022/01/04 09:20:47;;;;;;;15.40;10.88;;;;;;;9.35;86.72;99664.88;5075166;28;20050;-69
2022/01/04 09:23:20;;;;;;;17.30;10.77;;;;;;;9.41;86.71;99657.09;5076537;28;20024;-69
2022/01/04 09:25:51;;;;;;;16.98;10.45;;;;;;;9.51;87.31;99646.38;5076437;28;20545;-69
2022/01/04 09:28:17;;;;;;;13.57;9.77;;;;;;;9.62;87.16;99644.38;5072935;28;20024;-69
2022/01/04 09:30:45;;;;;;;16.50;10.30;;;;;;;9.76;85.22;99635.88;5053110;28;20085;-69
2022/01/04 09:33:11;;;;;;;15.52;10.40;;;;;;;9.82;84.92;99637.97;5084212;28;20028;-69
2022/01/04 09:35:37;;;;;;;15.27;10.05;;;;;;;9.86;84.00;99609.91;5078689;28;20082;-70
2022/01/04 09:38:04;;;;;;;15.05;9.55;;;;;;;10.02;83.94;99622.66;5087001;28;20028;-70
2022/01/04 09:40:30;;;;;;;12.77;9.57;;;;;;;10.20;82.27;99604.84;5082978;28;20502;-69
2022/01/04 09:42:57;;;;;;;15.05;9.27;;;;;;;10.20;82.11;99584.25;5067728;28;20032;-74
2022/01/04 09:45:22;;;;;;;12.43;9.45;;;;;;;10.31;81.88;99586.72;5074436;28;20551;-74
2022/01/04 09:47:48;;;;;;;13.50;9.80;;;;;;;10.33;82.17;99579.38;5084753;28;20061;-73
2022/01/04 09:50:13;;;;;;;16.02;9.75;;;;;;;10.38;81.94;99570.88;5074014;28;20476;-73
2022/01/04 09:52:43;;;;;;;13.40;9.55;;;;;;;10.43;81.41;99566.75;5077619;28;20534;-73
2022/01/04 09:55:13;;;;;;;12.13;8.80;;;;;;;10.60;80.12;99573.09;5080608;28;20019;-74
2022/01/04 09:57:38;;;;;;;13.52;9.50;;;;;;;10.65;80.04;99570.81;5088891;28;20028;-74
2022/01/04 10:00:06;;;;;;;13.77;8.98;;;;;;;10.70;80.14;99563.97;5080743;28;20028;-74
2022/01/04 10:02:31;;;;;;;12.43;9.80;;;;;;;10.69;79.57;99562.31;5080842;28;20024;-73
2022/01/04 10:05:12;;;;;;;14.05;9.80;;;;;;;10.87;78.27;99560.44;5069939;28;20020;-74
2022/01/04 10:07:38;;;;;;;13.20;9.30;;;;;;;10.88;77.43;99559.47;5081681;28;20503;-74
2022/01/04 10:10:05;;;;;;;13.48;9.75;;;;;;;10.96;76.33;99555.97;5081485;28;20035;-73
2022/01/04 10:12:48;;;;;;;13.27;9.48;;;;;;;11.02;75.70;99550.84;5079482;28;20081;-74
2022/01/04 10:15:32;;;;;;;11.98;8.77;;;;;;;11.11;76.13;99549.91;5080446;28;20380;-70
2022/01/04 10:18:01;;;;;;;14.20;10.00;;;;;;;11.03;76.42;99535.59;5069742;28;20032;-69
2022/01/04 10:20:26;;;;;;;14.60;10.05;;;;;;;11.14;76.48;99524.59;5076563;28;20123;-69
2022/01/04 10:22:51;;;;;;;14.30;9.90;;;;;;;11.23;74.88;99519.13;5075410;28;20050;-70
2022/01/04 10:25:20;;;;;;;13.32;9.73;;;;;;;11.20;74.92;99498.00;5078578;28;20086;-73
2022/01/04 10:27:50;;;;;;;13.48;9.27;;;;;;;11.28;75.16;99516.81;5078470;28;20139;-73
2022/01/04 10:30:30;;;;;;;17.85;9.85;;;;;;;11.33;74.66;99506.44;5084693;28;20775;-74
2022/01/04 10:33:13;;;;;;;12.48;9.05;;;;;;;11.34;75.08;99505.44;5061183;28;20055;-73
2022/01/04 10:35:46;;;;;;;13.85;9.73;;;;;;;11.34;74.94;99496.53;5081032;28;20044;-74
2022/01/04 10:38:18;;;;;;;13.65;9.48;;;;;;;11.43;74.36;99477.63;5077394;28;20016;-74
2022/01/04 10:40:58;;;;;;;14.05;9.10;;;;;;;11.27;74.57;99456.09;5082865;28;20507;-73
2022/01/04 10:43:29;;;;;;;11.57;8.88;;;;;;;11.36;74.66;99473.88;5081792;28;20725;-72
2022/01/04 10:45:56;;;;;;;13.40;8.85;;;;;;;11.35;74.86;99482.94;5077033;28;20048;-70
2022/01/04 10:48:26;;;;;;;13.52;9.35;;;;;;;11.51;74.99;99491.09;5072559;28;20025;-70
2022/01/04 10:50:58;;;;;;;17.10;8.32;;;;;;;11.55;75.12;99479.00;5081545;28;20047;-69
2022/01/04 10:53:30;;;;;;;12.07;8.13;;;;;;;11.55;74.13;99457.53;5056580;28;20024;-69
2022/01/04 10:56:01;;;;;;;18.23;9.00;;;;;;;11.71;73.48;99469.38;5071655;28;20028;-69
2022/01/04 10:58:33;;;;;;;13.18;9.32;;;;;;;11.71;73.62;99464.00;5071191;28;20031;-70
2022/01/04 11:01:01;;;;;;;11.18;8.07;;;;;;;11.69;74.21;99463.31;5074608;28;20028;-70
2022/01/04 11:03:32;;;;;;;12.48;8.43;;;;;;;11.72;74.40;99460.31;5078732;28;20517;-70
2022/01/04 11:06:04;;;;;;;11.35;8.23;;;;;;;11.75;74.38;99449.25;5082182;28;20434;-69
2022/01/04 11:08:30;;;;;;;13.63;9.13;;;;;;;11.78;74.63;99448.94;5075568;28;20037;-69
2022/01/04 11:10:56;;;;;;;13.27;8.73;;;;;;;11.78;74.41;99444.41;5070724;28;20021;-69
2022/01/04 11:13:23;;;;;;;13.95;8.80;;;;;;;11.95;72.83;99435.38;5078612;28;20089;-70
2022/01/04 11:15:49;;;;;;;11.55;8.15;;;;;;;12.03;72.65;99427.31;5082357;28;20027;-73
2022/01/04 11:18:14;;;;;;;16.02;8.30;;;;;;;12.09;72.46;99418.59;5068194;28;20020;-73
2022/01/04 11:20:41;;;;;;;11.95;8.15;;;;;;;12.11;72.36;99407.66;5077879;28;20499;-73
2022/01/04 11:23:08;;;;;;;10.43;7.70;;;;;;;12.16;72.77;99414.22;5087139;28;20537;-74
2022/01/04 11:25:33;;;;;;;12.82;8.32;;;;;;;12.19;71.78;99397.75;5076213;28;20086;-74
2022/01/04 11:28:01;;;;;;;14.02;8.80;;;;;;;12.36;72.19;99395.94;5075779;28;20078;-74
2022/01/04 11:30:36;;;;;;;11.35;7.45;;;;;;;12.35;72.31;99388.88;5078931;28;20032;-74